createdAt,value
2023-04-08T00:00:59.088Z,4.25
2023-04-08T00:03:28.752Z,4.93
2023-04-08T00:05:57.017Z,4.53
2023-04-08T00:08:25.201Z,3.85
2023-04-08T00:10:53.819Z,4.38
2023-04-08T00:13:21.993Z,4.68
2023-04-08T00:15:50.162Z,4.68
2023-04-08T00:18:18.460Z,4.38
2023-04-08T00:20:48.171Z,4.90
2023-04-08T00:23:16.317Z,5.20
2023-04-08T00:25:45.597Z,5.72
2023-04-08T00:28:13.983Z,5.57
2023-04-08T00:30:42.219Z,6.18
2023-04-08T00:33:10.591Z,4.78
2023-04-08T00:35:38.826Z,5.63
2023-04-08T00:38:08.989Z,5.68
2023-04-08T00:40:37.470Z,5.85
2023-04-08T00:43:05.684Z,5.22
2023-04-08T00:45:34.978Z,5.22
2023-04-08T00:48:04.026Z,5.32
2023-04-08T00:50:32.445Z,5.30
2023-04-08T00:53:00.545Z,5.45
2023-04-08T00:55:30.196Z,5.80
2023-04-08T00:57:58.742Z,6.47
2023-04-08T01:00:27.376Z,5.70
2023-04-08T01:03:05.135Z,6.60
2023-04-08T01:05:42.003Z,6.05
2023-04-08T01:08:13.005Z,5.80
2023-04-08T01:10:45.756Z,5.80
2023-04-08T01:13:18.857Z,5.25
2023-04-08T01:15:47.720Z,5.97
2023-04-08T01:18:18.075Z,5.72
2023-04-08T01:20:47.990Z,6.72
2023-04-08T01:23:32.653Z,5.18
2023-04-08T01:26:02.208Z,6.50
2023-04-08T01:28:32.675Z,6.60
2023-04-08T01:31:03.470Z,5.53
2023-04-08T01:33:32.771Z,6.13
2023-04-08T01:36:01.991Z,6.57
2023-04-08T01:38:33.065Z,6.25
2023-04-08T01:41:02.765Z,5.65
2023-04-08T01:43:32.319Z,5.80
2023-04-08T01:46:01.392Z,5.28
2023-04-08T01:48:30.679Z,6.22
2023-04-08T01:50:59.895Z,5.85
2023-04-08T01:53:28.072Z,8.00
2023-04-08T01:55:59.929Z,5.25
2023-04-08T01:58:37.549Z,5.85
2023-04-08T02:01:07.553Z,5.28
2023-04-08T02:03:37.170Z,5.20
2023-04-08T02:06:06.392Z,4.90
2023-04-08T02:08:36.271Z,5.47
2023-04-08T02:11:05.035Z,6.20
2023-04-08T02:13:34.901Z,6.53
2023-04-08T02:16:07.732Z,5.95
2023-04-08T02:18:38.851Z,5.95
2023-04-08T02:21:12.799Z,6.47
2023-04-08T02:23:42.695Z,5.93
2023-04-08T02:26:15.797Z,5.80
2023-04-08T02:28:45.867Z,5.75
2023-04-08T02:31:15.793Z,5.70
2023-04-08T02:33:44.631Z,5.63
2023-04-08T02:36:14.132Z,6.90
2023-04-08T02:38:42.334Z,5.30
2023-04-08T02:41:10.443Z,5.05
2023-04-08T02:43:38.594Z,5.10
2023-04-08T02:46:08.609Z,4.80
2023-04-08T02:48:37.078Z,4.28
2023-04-08T02:51:05.524Z,4.75
2023-04-08T02:53:33.674Z,5.45
2023-04-08T02:56:01.863Z,5.40
2023-04-08T02:58:30.048Z,5.13
2023-04-08T03:00:58.174Z,4.22
2023-04-08T03:03:29.869Z,4.78
2023-04-08T03:05:59.120Z,5.22
2023-04-08T03:08:27.471Z,4.90
2023-04-08T03:10:55.763Z,4.68
2023-04-08T03:13:23.949Z,4.57
2023-04-08T03:15:52.157Z,4.40
2023-04-08T03:18:20.410Z,4.40
2023-04-08T03:20:50.026Z,4.60
2023-04-08T03:23:18.218Z,4.32
2023-04-08T03:25:47.059Z,3.72
2023-04-08T03:28:15.156Z,3.97
2023-04-08T03:30:43.593Z,4.60
2023-04-08T03:33:11.746Z,4.10
2023-04-08T03:35:40.133Z,4.03
2023-04-08T03:38:09.744Z,3.97
2023-04-08T03:40:37.961Z,3.60
2023-04-08T03:43:06.871Z,3.63
2023-04-08T03:45:34.964Z,3.35
2023-04-08T03:48:03.054Z,3.45
2023-04-08T03:50:31.806Z,3.33
2023-04-08T03:52:59.972Z,3.67
2023-04-08T03:55:29.488Z,3.90
2023-04-08T03:57:57.588Z,3.72
2023-04-08T04:00:25.737Z,3.10
2023-04-08T04:02:55.532Z,3.67
2023-04-08T04:05:23.739Z,3.00
2023-04-08T04:07:51.913Z,3.42
2023-04-08T04:10:20.214Z,3.30
2023-04-08T04:12:51.563Z,3.10
2023-04-08T04:15:20.002Z,4.25
2023-04-08T04:17:50.435Z,4.28
2023-04-08T04:20:19.017Z,3.50
2023-04-08T04:22:47.191Z,3.55
2023-04-08T04:25:15.391Z,4.40
2023-04-08T04:27:43.620Z,3.72
2023-04-08T04:30:15.805Z,3.95
2023-04-08T04:32:44.194Z,4.13
2023-04-08T04:35:12.733Z,3.78
2023-04-08T04:37:41.013Z,4.38
2023-04-08T04:40:09.805Z,4.85
2023-04-08T04:42:38.136Z,4.35
2023-04-08T04:45:06.956Z,3.67
2023-04-08T04:47:36.635Z,4.00
2023-04-08T04:50:05.492Z,4.05
2023-04-08T04:52:33.938Z,3.40
2023-04-08T04:55:02.062Z,3.63
2023-04-08T04:57:30.517Z,4.88
2023-04-08T04:59:58.508Z,4.57
2023-04-08T05:02:27.310Z,3.95
2023-04-08T05:04:57.162Z,3.75
2023-04-08T05:07:25.575Z,4.25
2023-04-08T05:09:53.713Z,4.22
2023-04-08T05:12:22.034Z,3.95
2023-04-08T05:14:50.176Z,4.00
2023-04-08T05:17:18.329Z,4.15
2023-04-08T05:19:46.427Z,3.63
2023-04-08T05:22:16.104Z,4.28
2023-04-08T05:24:44.637Z,3.72
2023-04-08T05:27:12.805Z,3.63
2023-04-08T05:29:41.723Z,3.92
2023-04-08T05:32:09.822Z,4.03
2023-04-08T05:34:37.853Z,4.03
2023-04-08T05:37:06.186Z,4.60
2023-04-08T05:39:36.785Z,4.90
2023-04-08T05:42:05.239Z,4.33
2023-04-08T05:44:33.552Z,3.72
2023-04-08T05:47:01.760Z,4.25
2023-04-08T05:49:30.044Z,4.53
2023-04-08T05:51:58.105Z,4.22
2023-04-08T05:54:26.487Z,4.75
2023-04-08T05:56:56.036Z,3.85
2023-04-08T05:59:24.214Z,4.95
2023-04-08T06:01:52.405Z,4.90
2023-04-08T06:04:20.971Z,4.20
2023-04-08T06:06:49.141Z,4.25
2023-04-08T06:09:17.249Z,4.43
2023-04-08T06:11:47.327Z,3.72
2023-04-08T06:14:16.935Z,4.00
2023-04-08T06:16:45.139Z,3.58
2023-04-08T06:19:13.443Z,4.03
2023-04-08T06:21:41.814Z,3.67
2023-04-08T06:24:09.917Z,3.53
2023-04-08T06:26:38.068Z,3.90
2023-04-08T06:29:06.296Z,2.42
2023-04-08T06:31:35.834Z,4.25
2023-04-08T06:34:03.989Z,2.60
2023-04-08T06:36:32.248Z,2.67
2023-04-08T06:39:00.528Z,2.90
2023-04-08T06:41:28.669Z,2.80
2023-04-08T06:43:56.770Z,2.65
2023-04-08T06:46:25.070Z,2.60
2023-04-08T06:48:55.700Z,2.92
2023-04-08T06:51:23.856Z,2.80
2023-04-08T06:53:52.181Z,2.90
2023-04-08T06:56:21.518Z,2.80
2023-04-08T06:58:49.841Z,2.35
2023-04-08T07:01:18.097Z,2.47
2023-04-08T07:03:46.363Z,2.80
2023-04-08T07:06:16.190Z,2.15
2023-04-08T07:08:44.323Z,3.00
2023-04-08T07:11:12.437Z,1.90
2023-04-08T07:13:40.554Z,2.60
2023-04-08T07:16:08.722Z,2.80
2023-04-08T07:18:37.047Z,1.90
2023-04-08T07:21:05.632Z,1.80
2023-04-08T07:23:35.146Z,2.65
2023-04-08T07:26:05.030Z,2.28
2023-04-08T07:28:33.334Z,2.00
2023-04-08T07:31:11.427Z,2.17
2023-04-08T07:33:39.570Z,2.00
2023-04-08T07:36:07.873Z,2.20
2023-04-08T07:38:37.520Z,1.42
2023-04-08T07:41:05.945Z,1.98
2023-04-08T07:43:37.393Z,2.00
2023-04-08T07:48:34.569Z,1.83
2023-04-08T07:51:08.402Z,2.20
2023-04-08T07:53:40.905Z,2.30
2023-04-08T07:56:13.389Z,2.28
2023-04-08T07:58:41.933Z,1.95
2023-04-08T08:01:18.114Z,1.92
2023-04-08T08:03:48.047Z,2.05
2023-04-08T08:06:16.758Z,1.90
2023-04-08T08:08:47.060Z,1.45
2023-04-08T08:11:15.325Z,1.45
2023-04-08T08:13:43.414Z,1.73
2023-04-08T08:16:12.165Z,2.40
2023-04-08T08:18:41.513Z,1.50
2023-04-08T08:21:10.318Z,1.38
2023-04-08T08:23:38.718Z,1.58
2023-04-08T08:26:11.071Z,1.50
2023-04-08T08:28:39.824Z,1.27
2023-04-08T08:31:08.137Z,1.25
2023-04-08T08:33:36.673Z,1.40
2023-04-08T08:36:06.808Z,1.40
2023-04-08T08:38:35.119Z,1.30
2023-04-08T08:41:04.452Z,1.63
2023-04-08T08:43:34.787Z,1.35
2023-04-08T08:46:03.752Z,1.45
2023-04-08T08:48:34.199Z,0.70
2023-04-08T08:51:02.602Z,1.17
2023-04-08T08:53:35.716Z,1.15
2023-04-08T08:58:37.592Z,1.25
2023-04-08T09:01:32.495Z,1.23
2023-04-08T09:04:12.786Z,1.27
2023-04-08T09:06:41.653Z,2.13
2023-04-08T09:09:12.797Z,1.35
2023-04-08T09:11:42.066Z,2.35
2023-04-08T09:14:22.965Z,1.40
2023-04-08T09:16:51.702Z,1.33
2023-04-08T09:19:20.448Z,2.08
2023-04-08T09:22:07.469Z,1.58
2023-04-08T09:24:37.347Z,1.70
2023-04-08T09:27:06.394Z,1.80
2023-04-08T09:29:39.946Z,1.80
2023-04-08T09:32:08.443Z,1.42
2023-04-08T09:34:36.892Z,1.75
2023-04-08T09:37:05.182Z,1.67
2023-04-08T09:39:33.378Z,2.25
2023-04-08T09:42:02.852Z,1.75
2023-04-08T09:44:32.044Z,1.40
2023-04-08T09:47:10.154Z,1.73
2023-04-08T09:49:43.613Z,1.80
2023-04-08T09:52:16.253Z,2.67
2023-04-08T09:54:50.095Z,1.58
2023-04-08T09:57:25.266Z,1.45
2023-04-08T09:59:59.189Z,2.13
2023-04-08T10:02:36.759Z,1.05
2023-04-08T10:05:08.302Z,1.15
2023-04-08T10:07:36.929Z,1.50
2023-04-08T10:10:05.873Z,1.52
2023-04-08T10:12:34.501Z,2.55
2023-04-08T10:15:25.153Z,1.60
2023-04-08T10:17:55.511Z,1.60
2023-04-08T10:20:46.098Z,1.70
2023-04-08T10:23:15.662Z,1.48
2023-04-08T10:25:45.305Z,1.38
2023-04-08T10:28:27.342Z,1.45
2023-04-08T10:30:57.521Z,1.30
2023-04-08T10:33:36.049Z,1.75
2023-04-08T10:36:11.851Z,1.40
2023-04-08T10:38:40.246Z,1.58
2023-04-08T10:41:08.464Z,1.50
2023-04-08T10:43:37.311Z,1.70
2023-04-08T10:46:06.562Z,1.58
2023-04-08T10:48:37.935Z,2.70
2023-04-08T10:51:07.002Z,1.88
2023-04-08T10:53:36.643Z,1.48
2023-04-08T10:56:06.551Z,1.77
2023-04-08T10:58:35.349Z,2.03
2023-04-08T11:01:08.482Z,1.90
2023-04-08T11:03:38.428Z,1.40
2023-04-08T11:06:07.580Z,1.58
2023-04-08T11:08:37.915Z,1.73
2023-04-08T11:11:09.184Z,3.03
2023-04-08T11:16:17.251Z,2.05
2023-04-08T11:18:48.320Z,1.77
2023-04-08T11:21:17.395Z,1.73
2023-04-08T11:23:45.596Z,1.92
2023-04-08T11:26:15.243Z,2.42
2023-04-08T11:28:43.478Z,2.00
2023-04-08T11:31:12.329Z,1.83
2023-04-08T11:33:48.912Z,2.30
2023-04-08T11:36:19.180Z,1.55
2023-04-08T11:38:48.140Z,2.15
2023-04-08T11:41:17.586Z,2.00
2023-04-08T11:43:56.333Z,2.22
2023-04-08T11:46:25.064Z,2.50
2023-04-08T11:49:06.079Z,2.15
2023-04-08T11:51:35.571Z,1.87
2023-04-08T11:54:07.462Z,2.33
2023-04-08T11:56:47.090Z,2.13
2023-04-08T11:59:15.736Z,2.53
2023-04-08T12:01:43.897Z,2.22
2023-04-08T12:04:13.478Z,2.10
2023-04-08T12:06:43.685Z,2.53
2023-04-08T12:09:11.897Z,2.45
2023-04-08T12:11:40.090Z,2.58
2023-04-08T12:14:08.166Z,2.05
2023-04-08T12:16:36.514Z,3.25
2023-04-08T12:19:04.810Z,2.22
2023-04-08T12:21:34.660Z,2.45
2023-04-08T12:24:03.187Z,2.72
2023-04-08T12:26:31.360Z,3.05
2023-04-08T12:28:59.395Z,2.40
2023-04-08T12:31:28.672Z,3.05
2023-04-08T12:33:57.008Z,2.75
2023-04-08T12:36:25.411Z,3.05
2023-04-08T12:38:54.980Z,2.35
2023-04-08T12:41:23.177Z,2.72
2023-04-08T12:43:51.261Z,2.13
2023-04-08T12:46:19.443Z,2.58
2023-04-08T12:48:48.677Z,2.67
2023-04-08T12:51:17.032Z,2.85
2023-04-08T12:53:45.274Z,3.10
2023-04-08T12:56:14.700Z,2.47
2023-04-08T12:58:42.800Z,2.47
2023-04-08T13:01:12.696Z,3.15
2023-04-08T13:03:44.375Z,2.80
2023-04-08T13:06:13.813Z,4.25
2023-04-08T13:08:41.981Z,2.85
2023-04-08T13:11:10.564Z,5.07
2023-04-08T13:13:40.218Z,3.20
2023-04-08T13:16:09.592Z,3.45
2023-04-08T13:18:37.805Z,3.83
2023-04-08T13:21:06.316Z,3.40
2023-04-08T13:23:34.423Z,3.30
2023-04-08T13:26:03.045Z,3.10
2023-04-08T13:28:31.136Z,3.00
2023-04-08T13:31:00.693Z,3.65
2023-04-08T13:33:28.922Z,3.65
2023-04-08T13:35:57.207Z,3.05
2023-04-08T13:38:25.548Z,3.15
2023-04-08T13:40:53.746Z,3.03
2023-04-08T13:43:22.715Z,3.63
2023-04-08T13:45:50.958Z,2.70
2023-04-08T13:48:21.553Z,3.00
2023-04-08T13:50:50.285Z,3.42
2023-04-08T13:53:18.424Z,4.13
2023-04-08T13:55:46.699Z,3.55
2023-04-08T13:58:23.448Z,3.10
2023-04-08T14:00:52.661Z,3.13
2023-04-08T14:03:22.646Z,2.83
2023-04-08T14:05:51.247Z,3.22
2023-04-08T14:08:25.300Z,3.65
2023-04-08T14:10:53.892Z,3.28
2023-04-08T14:13:22.138Z,3.08
2023-04-08T14:15:50.302Z,2.90
2023-04-08T14:18:18.458Z,3.65
2023-04-08T14:20:48.014Z,3.15
2023-04-08T14:23:17.075Z,2.70
2023-04-08T14:25:45.213Z,3.40
2023-04-08T14:28:13.486Z,2.80
2023-04-08T14:30:41.968Z,2.95
2023-04-08T14:33:10.183Z,3.40
2023-04-08T14:35:38.419Z,3.25
2023-04-08T14:38:07.992Z,3.72
2023-04-08T14:40:37.564Z,3.20
2023-04-08T14:43:06.384Z,3.53
2023-04-08T14:45:34.543Z,3.20
2023-04-08T14:48:02.741Z,3.25
2023-04-08T14:50:31.781Z,2.60
2023-04-08T14:53:00.219Z,3.10
2023-04-08T14:55:30.211Z,4.40
2023-04-08T14:58:00.831Z,2.97
2023-04-08T15:00:29.733Z,4.53
2023-04-08T15:02:57.959Z,3.70
2023-04-08T15:05:26.697Z,3.28
2023-04-08T15:07:55.560Z,4.70
2023-04-08T15:10:23.680Z,5.40
2023-04-08T15:12:53.304Z,6.30
2023-04-08T15:15:21.519Z,6.20
2023-04-08T15:17:51.648Z,8.25
2023-04-08T15:20:20.400Z,7.60
2023-04-08T15:22:48.674Z,7.43
2023-04-08T15:25:17.044Z,6.70
2023-04-08T15:27:45.238Z,9.77
2023-04-08T15:30:14.950Z,6.72
2023-04-08T15:32:43.210Z,5.72
2023-04-08T15:35:12.185Z,10.27
2023-04-08T15:37:40.453Z,5.55
2023-04-08T15:40:10.060Z,6.25
2023-04-08T15:42:38.206Z,6.68
2023-04-08T15:45:06.807Z,6.57
2023-04-08T15:47:37.012Z,3.95
2023-04-08T15:50:05.857Z,3.55
2023-04-08T15:52:35.302Z,4.07
2023-04-08T15:55:03.845Z,5.07
2023-04-08T15:57:32.523Z,3.65
2023-04-08T16:00:00.914Z,3.60
2023-04-08T16:02:29.788Z,3.42
2023-04-08T16:04:59.544Z,3.42
2023-04-08T16:07:27.847Z,4.95
2023-04-08T16:09:56.061Z,3.90
2023-04-08T16:12:25.587Z,4.43
2023-04-08T16:14:53.754Z,3.95
2023-04-08T16:17:22.046Z,3.70
2023-04-08T16:19:52.188Z,4.15
2023-04-08T16:22:21.864Z,3.40
2023-04-08T16:24:50.172Z,3.72
2023-04-08T16:27:18.436Z,3.30
2023-04-08T16:29:46.830Z,3.88
2023-04-08T16:32:14.984Z,4.88
2023-04-08T16:34:43.146Z,4.07
2023-04-08T16:37:12.253Z,3.60
2023-04-08T16:39:42.641Z,3.60
2023-04-08T16:42:10.778Z,5.05
2023-04-08T16:44:38.838Z,3.83
2023-04-08T16:47:07.127Z,4.28
2023-04-08T16:49:35.174Z,4.30
2023-04-08T16:52:03.238Z,3.20
2023-04-08T16:54:31.504Z,3.55
2023-04-08T16:57:00.937Z,4.00
2023-04-08T16:59:29.455Z,4.28
2023-04-08T17:01:58.555Z,4.43
2023-04-08T17:04:26.734Z,3.42
2023-04-08T17:06:54.841Z,3.75
2023-04-08T17:09:23.410Z,4.47
2023-04-08T17:11:51.528Z,3.85
2023-04-08T17:14:21.320Z,4.20
2023-04-08T17:16:49.687Z,3.90
2023-04-08T17:19:17.982Z,3.60
2023-04-08T17:21:46.395Z,4.00
2023-04-08T17:24:14.528Z,4.35
2023-04-08T17:26:43.203Z,4.25
2023-04-08T17:29:11.311Z,3.58
2023-04-08T17:31:41.565Z,3.67
2023-04-08T17:34:09.696Z,3.40
2023-04-08T17:36:37.857Z,3.95
2023-04-08T17:39:06.194Z,3.28
2023-04-08T17:41:40.407Z,3.72
2023-04-08T17:44:09.295Z,4.00
2023-04-08T17:46:37.521Z,4.10
2023-04-08T17:49:07.205Z,3.30
2023-04-08T17:51:35.616Z,4.88
2023-04-08T17:54:04.617Z,3.58
2023-04-08T17:56:33.468Z,3.15
2023-04-08T17:59:01.899Z,4.28
2023-04-08T18:01:30.411Z,4.45
2023-04-08T18:03:58.714Z,4.88
2023-04-08T18:06:28.397Z,3.55
2023-04-08T18:08:56.751Z,4.32
2023-04-08T18:11:26.690Z,3.40
2023-04-08T18:13:54.999Z,3.15
2023-04-08T18:16:23.538Z,4.80
2023-04-08T18:18:51.742Z,2.95
2023-04-08T18:21:19.894Z,2.38
2023-04-08T18:23:51.070Z,2.35
2023-04-08T18:26:19.544Z,2.47
2023-04-08T18:28:47.696Z,2.50
2023-04-08T18:31:16.776Z,2.30
2023-04-08T18:33:45.116Z,2.28
2023-04-08T18:36:14.039Z,2.00
2023-04-08T18:38:42.260Z,2.60
2023-04-08T18:41:13.460Z,1.85
2023-04-08T18:43:42.091Z,2.60
2023-04-08T18:46:10.514Z,2.55
2023-04-08T18:48:38.696Z,2.47
2023-04-08T18:51:07.073Z,2.70
2023-04-08T18:53:35.271Z,2.38
2023-04-08T18:56:03.458Z,2.45
2023-04-08T18:58:33.619Z,3.38
2023-04-08T19:01:01.682Z,2.55
2023-04-08T19:03:29.843Z,2.95
2023-04-08T19:05:58.130Z,3.05
2023-04-08T19:08:26.661Z,2.38
2023-04-08T19:10:54.888Z,1.92
2023-04-08T19:13:23.892Z,2.53
2023-04-08T19:15:53.518Z,2.58
2023-04-08T19:18:21.680Z,2.47
2023-04-08T19:21:08.802Z,2.40
2023-04-08T19:23:36.966Z,2.58
2023-04-08T19:26:06.840Z,2.60
2023-04-08T19:28:36.356Z,2.53
2023-04-08T19:31:06.082Z,2.58
2023-04-08T19:33:34.283Z,2.75
2023-04-08T19:36:03.171Z,2.35
2023-04-08T19:38:31.521Z,2.42
2023-04-08T19:40:59.688Z,2.97
2023-04-08T19:43:27.993Z,2.70
2023-04-08T19:45:56.111Z,2.85
2023-04-08T19:48:26.082Z,2.90
2023-04-08T19:50:54.362Z,2.47
2023-04-08T19:53:22.768Z,3.20
2023-04-08T19:55:50.882Z,2.45
2023-04-08T19:58:18.980Z,2.47
2023-04-08T20:00:47.164Z,2.42
2023-04-08T20:03:15.747Z,2.22
2023-04-08T20:05:46.868Z,3.35
2023-04-08T20:08:14.994Z,2.70
2023-04-08T20:10:43.238Z,2.58
2023-04-08T20:13:11.535Z,3.00
2023-04-08T20:15:39.636Z,2.35
2023-04-08T20:18:07.817Z,2.78
2023-04-08T20:20:36.326Z,2.88
2023-04-08T20:23:05.897Z,2.50
2023-04-08T20:25:34.525Z,3.63
2023-04-08T20:28:03.182Z,2.22
2023-04-08T20:30:31.382Z,2.45
2023-04-08T20:32:59.541Z,3.30
2023-04-08T20:35:27.951Z,2.45
2023-04-08T20:37:56.231Z,3.17
2023-04-08T20:40:25.764Z,2.55
2023-04-08T20:42:53.938Z,2.90
2023-04-08T20:45:22.975Z,2.40
2023-04-08T20:47:51.141Z,2.00
2023-04-08T20:50:19.398Z,2.88
2023-04-08T20:52:48.352Z,2.95
2023-04-08T20:55:16.955Z,2.55
2023-04-08T20:57:47.940Z,2.92
2023-04-08T21:00:17.102Z,2.70
2023-04-08T21:02:45.371Z,2.97
2023-04-08T21:05:13.716Z,2.83
2023-04-08T21:07:44.490Z,2.95
2023-04-08T21:10:14.305Z,2.35
2023-04-08T21:12:42.623Z,2.88
2023-04-08T21:15:12.581Z,2.58
2023-04-08T21:17:40.846Z,3.00
2023-04-08T21:20:10.143Z,2.40
2023-04-08T21:22:38.283Z,2.83
2023-04-08T21:25:07.784Z,2.70
2023-04-08T21:27:37.750Z,2.50
2023-04-08T21:30:06.501Z,2.85
2023-04-08T21:32:36.200Z,2.53
2023-04-08T21:35:04.530Z,2.80
2023-04-08T21:37:32.688Z,2.42
2023-04-08T21:40:00.827Z,2.90
2023-04-08T21:42:28.966Z,2.30
2023-04-08T21:44:57.665Z,2.50
2023-04-08T21:47:26.114Z,2.05
2023-04-08T21:49:55.961Z,2.13
2023-04-08T21:52:24.309Z,3.33
2023-04-08T21:54:52.502Z,2.40
2023-04-08T21:57:20.885Z,3.08
2023-04-08T21:59:49.620Z,2.65
2023-04-08T22:02:17.839Z,2.70
2023-04-08T22:04:46.178Z,1.98
2023-04-08T22:07:15.748Z,2.58
2023-04-08T22:09:44.048Z,2.88
2023-04-08T22:12:12.428Z,2.22
2023-04-08T22:14:40.671Z,2.60
2023-04-08T22:17:08.868Z,2.17
2023-04-08T22:19:37.144Z,2.38
2023-04-08T22:22:05.400Z,1.90
2023-04-08T22:24:34.835Z,2.08
2023-04-08T22:27:03.514Z,2.13
2023-04-08T22:29:31.679Z,2.42
2023-04-08T22:31:59.717Z,2.50
2023-04-08T22:34:27.828Z,2.28
2023-04-08T22:36:56.067Z,2.20
2023-04-08T22:39:26.155Z,2.15
2023-04-08T22:41:56.005Z,2.25
2023-04-08T22:44:24.169Z,2.33
2023-04-08T22:46:52.596Z,1.98
2023-04-08T22:49:20.748Z,1.75
2023-04-08T22:51:49.310Z,2.22
2023-04-08T22:54:18.256Z,1.63
2023-04-08T22:56:46.508Z,1.98
2023-04-08T22:59:16.558Z,1.88
2023-04-08T23:01:45.400Z,1.90
2023-04-08T23:04:13.637Z,1.60
2023-04-08T23:06:41.770Z,1.92
2023-04-08T23:09:09.908Z,1.85
2023-04-08T23:11:38.016Z,2.08
2023-04-08T23:14:06.130Z,2.00
2023-04-08T23:16:35.912Z,1.95
2023-04-08T23:19:04.349Z,1.58
2023-04-08T23:21:32.579Z,1.65
2023-04-08T23:24:00.726Z,2.00
2023-04-08T23:26:29.384Z,1.45
2023-04-08T23:28:57.694Z,1.50
2023-04-08T23:31:25.940Z,1.75
2023-04-08T23:33:55.722Z,2.05
2023-04-08T23:36:23.783Z,1.83
2023-04-08T23:38:52.193Z,1.58
2023-04-08T23:41:20.793Z,1.70
2023-04-08T23:43:48.970Z,2.00
2023-04-08T23:46:17.269Z,1.55
2023-04-08T23:48:45.426Z,1.85
2023-04-08T23:51:15.039Z,1.88
2023-04-08T23:53:43.295Z,1.75
2023-04-08T23:56:11.649Z,2.00
2023-04-08T23:58:39.783Z,1.95
